createdAt,value
2023-03-28T03:22:45.321Z,101300.94
2023-03-28T07:41:19.977Z,101461.63
2023-03-28T08:55:37.161Z,101480.38
2023-03-28T11:28:06.570Z,101395.28
2023-03-28T11:41:27.550Z,101356.53
2023-03-28T11:44:10.072Z,101358.06
2023-03-28T11:46:45.494Z,101363.63
2023-03-28T11:49:37.097Z,101351.66
2023-03-28T12:00:32.759Z,101351.50
2023-03-28T12:10:38.924Z,101348.28
2023-03-28T12:13:14.222Z,101349.72
2023-03-28T12:15:48.979Z,101337.94
2023-03-28T12:18:34.561Z,101326.06
2023-03-28T12:21:16.239Z,101323.72
2023-03-28T12:24:00.006Z,101307.75
2023-03-28T12:26:39.794Z,101312.78
2023-03-28T12:32:27.427Z,101279.09
2023-03-28T12:35:06.328Z,101298.78
2023-03-28T12:40:56.507Z,101233.84
2023-03-28T12:59:19.857Z,101205.81
2023-03-28T13:01:57.125Z,101280.09
2023-03-28T13:04:52.508Z,101275.44
2023-03-28T13:07:43.864Z,101232.41
2023-03-28T13:10:47.624Z,101272.72
2023-03-28T13:19:05.797Z,101262.78
2023-03-28T15:19:25.250Z,101091.75
2023-03-28T15:22:04.320Z,101076.91
2023-03-28T15:24:39.938Z,101073.59
2023-03-28T15:27:30.451Z,101058.88
2023-03-28T15:30:20.589Z,101056.09
2023-03-28T15:32:58.251Z,101052.97
2023-03-28T15:35:35.101Z,101005.41
2023-03-28T15:38:20.176Z,101050.69
2023-03-28T15:41:00.978Z,101050.63
2023-03-28T15:43:45.232Z,101025.75
2023-03-28T15:46:23.626Z,100994.50
2023-03-28T15:48:59.854Z,101029.16
2023-03-28T15:51:38.232Z,101029.72
2023-03-28T15:54:28.217Z,101029.09
2023-03-28T15:57:15.838Z,101028.28
2023-03-28T15:59:59.062Z,100987.56
2023-03-28T16:02:38.947Z,101030.25
2023-03-28T16:05:37.652Z,101008.88
2023-03-28T16:08:23.876Z,100974.72
2023-03-28T16:11:06.510Z,101006.03
2023-03-28T16:13:40.313Z,101014.25
2023-03-28T16:16:34.765Z,100999.28
2023-03-28T16:19:39.490Z,101005.19
2023-03-28T16:22:20.559Z,100994.31
2023-03-28T16:24:58.297Z,101006.03
2023-03-28T16:28:06.265Z,100993.00
2023-03-28T16:30:37.556Z,100987.50
2023-03-28T16:33:06.932Z,100953.97
2023-03-28T16:35:35.807Z,100987.50
2023-03-28T16:38:06.989Z,100961.72
2023-03-28T16:40:37.091Z,100947.47
2023-03-28T16:43:05.721Z,100923.66
2023-03-28T16:45:34.353Z,100986.38
2023-03-28T16:48:06.482Z,100960.28
2023-03-28T16:50:35.041Z,100945.94
2023-03-28T16:53:04.219Z,100968.63
2023-03-28T16:55:34.383Z,100939.88
2023-03-28T16:58:06.638Z,100957.25
2023-03-28T17:00:35.418Z,100956.69
2023-03-28T17:03:05.268Z,100921.72
2023-03-28T17:05:33.735Z,100938.00
2023-03-28T17:08:02.369Z,100946.59
2023-03-28T17:10:30.968Z,100927.66
2023-03-28T17:13:02.652Z,100937.50
2023-03-28T17:15:35.056Z,100928.63
2023-03-28T17:18:06.064Z,100912.56
2023-03-28T17:20:35.628Z,100937.16
2023-03-28T17:23:08.512Z,100913.03
2023-03-28T17:25:48.105Z,100869.59
2023-03-28T17:28:21.913Z,100914.56
2023-03-28T17:31:00.204Z,100907.25
2023-03-28T17:33:31.395Z,100886.88
2023-03-28T17:36:04.522Z,100860.44
2023-03-28T17:41:19.560Z,100877.28
2023-03-28T17:52:17.822Z,100910.06
2023-03-28T17:54:48.318Z,100898.09
2023-03-28T17:57:18.600Z,100888.75
2023-03-28T17:59:47.215Z,100889.34
2023-03-28T18:02:16.766Z,100910.28
2023-03-28T18:04:45.692Z,100913.44
2023-03-28T18:07:15.902Z,100906.41
2023-03-28T18:09:55.785Z,100909.63
2023-03-28T18:12:24.315Z,100890.66
2023-03-28T18:14:52.726Z,100878.25
2023-03-28T18:17:23.037Z,100891.91
2023-03-28T18:20:04.129Z,100846.28
2023-03-28T18:22:35.253Z,100885.38
2023-03-28T18:25:07.134Z,100850.75
2023-03-28T18:27:43.785Z,100868.44
2023-03-28T18:32:56.918Z,100898.47
2023-03-28T18:35:25.476Z,100876.06
2023-03-28T18:37:54.073Z,100873.59
2023-03-28T18:40:23.924Z,100867.16
2023-03-28T18:42:57.937Z,100893.25
2023-03-28T18:45:29.513Z,100843.88
2023-03-28T18:48:05.819Z,100872.75
2023-03-28T18:50:34.707Z,100902.34
2023-03-28T18:53:05.335Z,100901.19
2023-03-28T18:55:35.546Z,100901.56
2023-03-28T18:58:10.507Z,100875.84
2023-03-28T19:00:40.748Z,100881.84
2023-03-28T19:03:10.850Z,100891.34
2023-03-28T19:05:42.455Z,100888.03
2023-03-28T19:08:11.258Z,100888.94
2023-03-28T19:10:46.451Z,100877.88
2023-03-28T19:13:22.456Z,100897.84
2023-03-28T19:24:59.525Z,100884.69
2023-03-28T19:27:29.434Z,100890.09
2023-03-28T19:30:00.106Z,100836.28
2023-03-28T19:32:43.813Z,100860.13
2023-03-28T19:35:20.336Z,100808.19
2023-03-28T19:37:56.365Z,100856.66
2023-03-28T19:40:27.153Z,100869.69
2023-03-28T19:42:59.811Z,100869.16
2023-03-28T19:45:42.933Z,100804.28
2023-03-28T19:48:23.312Z,100844.34
2023-03-28T19:51:13.536Z,100849.38
2023-03-28T19:53:43.077Z,100832.97
2023-03-28T19:56:15.004Z,100875.59
2023-03-28T19:58:49.031Z,100857.31
2023-03-28T20:01:20.771Z,100828.38
2023-03-28T20:03:53.440Z,100867.53
2023-03-28T20:06:23.729Z,100804.84
2023-03-28T20:08:53.332Z,100871.59
2023-03-28T20:11:22.734Z,100865.22
2023-03-28T20:13:59.562Z,100830.06
2023-03-28T20:16:29.707Z,100858.47
2023-03-28T20:19:01.243Z,100871.91
2023-03-28T20:21:31.389Z,100832.22
2023-03-28T20:24:00.749Z,100880.53
2023-03-28T20:26:31.303Z,100880.72
2023-03-28T20:29:04.769Z,100869.47
2023-03-28T20:34:21.386Z,100871.94
2023-03-28T20:36:51.166Z,100791.94
2023-03-28T20:39:20.530Z,100857.88
2023-03-28T20:41:54.793Z,100852.84
2023-03-28T20:44:33.160Z,100853.13
2023-03-28T20:47:06.781Z,100864.97
2023-03-28T20:49:36.221Z,100850.72
2023-03-28T20:52:06.569Z,100824.94
2023-03-28T20:54:37.738Z,100860.41
2023-03-28T20:57:16.995Z,100873.41
2023-03-28T20:59:49.129Z,100858.25
2023-03-28T21:02:24.605Z,100845.38
2023-03-28T21:04:56.324Z,100848.75
2023-03-28T21:07:35.299Z,100864.25
2023-03-28T21:10:04.272Z,100863.13
2023-03-28T21:12:39.105Z,100854.13
2023-03-28T21:15:15.698Z,100842.41
2023-03-28T21:17:44.530Z,100844.31
2023-03-28T21:20:13.914Z,100843.56
2023-03-28T21:22:45.826Z,100840.47
2023-03-28T21:25:15.764Z,100836.16
2023-03-28T21:27:45.271Z,100798.63
2023-03-28T21:30:18.313Z,100813.22
2023-03-28T21:32:49.022Z,100792.59
2023-03-28T21:35:21.817Z,100816.69
2023-03-28T21:37:57.370Z,100752.94
2023-03-28T21:40:28.513Z,100803.91
2023-03-28T22:04:09.044Z,100783.94
2023-03-28T22:06:56.395Z,100718.25
2023-03-28T22:09:39.529Z,100814.44
2023-03-28T22:12:10.324Z,100807.31
2023-03-28T22:14:55.597Z,100764.22
2023-03-28T22:17:39.165Z,100785.75
2023-03-28T22:23:22.001Z,100812.72
2023-03-28T22:31:52.910Z,100761.75
2023-03-28T22:34:27.328Z,100773.69
2023-03-28T22:36:57.622Z,100767.22
2023-03-28T22:39:28.508Z,100746.72
2023-03-28T22:42:08.786Z,100761.25
2023-03-28T22:44:45.074Z,100707.03
2023-03-28T22:47:14.998Z,100781.09
2023-03-28T22:49:46.048Z,100716.97
2023-03-28T22:52:17.348Z,100775.03
2023-03-28T22:54:47.750Z,100728.28
2023-03-28T22:57:16.598Z,100755.41
2023-03-28T22:59:50.517Z,100770.47
2023-03-28T23:02:19.833Z,100686.06
2023-03-28T23:04:47.985Z,100676.72
2023-03-28T23:07:16.599Z,100751.59
2023-03-28T23:09:50.150Z,100776.97
2023-03-28T23:12:20.031Z,100752.13
2023-03-28T23:14:53.749Z,100738.53
2023-03-28T23:17:23.093Z,100738.53
2023-03-28T23:19:53.500Z,100711.06
2023-03-28T23:22:25.500Z,100777.78
2023-03-28T23:25:00.126Z,100779.75
2023-03-28T23:27:28.782Z,100699.28
2023-03-28T23:29:57.911Z,100770.16
2023-03-28T23:32:28.751Z,100769.06
2023-03-28T23:34:59.063Z,100721.47
2023-03-28T23:37:42.209Z,100736.09
2023-03-28T23:40:15.904Z,100701.66
2023-03-28T23:42:45.856Z,100669.81
2023-03-28T23:45:17.578Z,100753.13
2023-03-28T23:47:47.654Z,100741.88
2023-03-28T23:50:18.936Z,100715.06
2023-03-28T23:52:51.861Z,100731.97
2023-03-28T23:55:24.281Z,100665.25
2023-03-28T23:57:54.479Z,100710.75
